sensor_id;sensor_type;location;lat;lon;timestamp;pressure;altitude;pressure_sealevel;temperature;humidity
5679;BME280;2862;52.560;13.566;2023-07-31T00:10:00;100253.69;;;17.14;92.38
5679;BME280;2862;52.560;13.566;2023-07-31T00:20:05;100252.25;;;17.03;90.98
5679;BME280;2862;52.560;13.566;2023-07-31T00:30:09;100231.22;;;16.76;92.98
5679;BME280;2862;52.560;13.566;2023-07-31T00:40:13;100219.56;;;16.75;91.76
5679;BME280;2862;52.560;13.566;2023-07-31T00:50:17;100204.91;;;16.69;91.68
5679;BME280;2862;52.560;13.566;2023-07-31T01:00:21;100203.66;;;16.80;91.11
5679;BME280;2862;52.560;13.566;2023-07-31T01:10:28;100192.91;;;16.72;94.57
5679;BME280;2862;52.560;13.566;2023-07-31T01:20:36;100193.75;;;16.95;92.72
5679;BME280;2862;52.560;13.566;2023-07-31T01:30:44;100189.47;;;17.01;92.24
5679;BME280;2862;52.560;13.566;2023-07-31T01:40:51;100200.00;;;16.73;96.14
5679;BME280;2862;52.560;13.566;2023-07-31T01:51:00;100189.78;;;16.83;97.92
5679;BME280;2862;52.560;13.566;2023-07-31T02:01:03;100176.25;;;17.06;97.13
5679;BME280;2862;52.560;13.566;2023-07-31T02:11:09;100171.53;;;17.23;96.62
5679;BME280;2862;52.560;13.566;2023-07-31T02:21:12;100159.41;;;17.19;96.47
5679;BME280;2862;52.560;13.566;2023-07-31T02:31:16;100161.56;;;17.23;95.79
5679;BME280;2862;52.560;13.566;2023-07-31T02:41:20;100146.56;;;17.21;96.92
5679;BME280;2862;52.560;13.566;2023-07-31T02:51:24;100135.94;;;17.19;96.18
5679;BME280;2862;52.560;13.566;2023-07-31T03:01:27;100128.13;;;17.39;94.08
5679;BME280;2862;52.560;13.566;2023-07-31T03:11:31;100127.56;;;17.29;94.30
5679;BME280;2862;52.560;13.566;2023-07-31T03:21:34;100135.56;;;17.08;98.28
5679;BME280;2862;52.560;13.566;2023-07-31T03:31:38;100121.94;;;17.01;100.00
5679;BME280;2862;52.560;13.566;2023-07-31T03:41:41;100105.16;;;16.91;100.00
5679;BME280;2862;52.560;13.566;2023-07-31T03:51:45;100108.03;;;16.75;100.00
5679;BME280;2862;52.560;13.566;2023-07-31T04:01:48;100091.66;;;16.76;100.00
5679;BME280;2862;52.560;13.566;2023-07-31T04:11:52;100095.22;;;16.68;100.00
5679;BME280;2862;52.560;13.566;2023-07-31T04:21:55;100075.47;;;16.68;100.00
5679;BME280;2862;52.560;13.566;2023-07-31T04:32:00;100073.41;;;16.78;100.00
5679;BME280;2862;52.560;13.566;2023-07-31T04:42:03;100069.22;;;16.90;100.00
5679;BME280;2862;52.560;13.566;2023-07-31T04:52:07;100063.56;;;17.00;100.00
5679;BME280;2862;52.560;13.566;2023-07-31T05:02:11;100064.47;;;17.07;100.00
5679;BME280;2862;52.560;13.566;2023-07-31T05:12:16;100058.44;;;17.05;100.00
5679;BME280;2862;52.560;13.566;2023-07-31T05:22:18;100061.50;;;17.17;100.00
5679;BME280;2862;52.560;13.566;2023-07-31T05:32:22;100054.25;;;17.17;100.00
5679;BME280;2862;52.560;13.566;2023-07-31T05:42:25;100049.00;;;17.45;100.00
5679;BME280;2862;52.560;13.566;2023-07-31T05:52:30;100044.22;;;17.47;100.00
5679;BME280;2862;52.560;13.566;2023-07-31T06:02:33;100038.59;;;17.28;100.00
5679;BME280;2862;52.560;13.566;2023-07-31T06:12:39;100043.75;;;17.59;99.63
5679;BME280;2862;52.560;13.566;2023-07-31T06:22:42;100040.78;;;17.53;100.00
5679;BME280;2862;52.560;13.566;2023-07-31T06:32:46;100037.16;;;17.46;100.00
5679;BME280;2862;52.560;13.566;2023-07-31T06:42:49;100033.41;;;17.47;100.00
5679;BME280;2862;52.560;13.566;2023-07-31T06:52:54;100035.13;;;17.70;100.00
5679;BME280;2862;52.560;13.566;2023-07-31T07:02:57;100021.28;;;17.73;100.00
5679;BME280;2862;52.560;13.566;2023-07-31T07:13:01;100020.66;;;17.92;100.00
5679;BME280;2862;52.560;13.566;2023-07-31T07:23:04;100025.97;;;17.49;100.00
5679;BME280;2862;52.560;13.566;2023-07-31T07:33:09;100035.00;;;17.57;100.00
5679;BME280;2862;52.560;13.566;2023-07-31T07:43:12;100014.97;;;17.87;100.00
5679;BME280;2862;52.560;13.566;2023-07-31T07:53:16;100007.31;;;18.40;100.00
5679;BME280;2862;52.560;13.566;2023-07-31T08:03:19;99999.09;;;18.48;99.56
5679;BME280;2862;52.560;13.566;2023-07-31T08:13:23;100003.38;;;18.36;100.00
5679;BME280;2862;52.560;13.566;2023-07-31T08:23:26;99984.41;;;18.64;97.46
5679;BME280;2862;52.560;13.566;2023-07-31T08:33:30;99981.59;;;19.20;93.48
5679;BME280;2862;52.560;13.566;2023-07-31T08:43:33;99975.09;;;18.45;99.03
5679;BME280;2862;52.560;13.566;2023-07-31T08:53:37;99980.13;;;18.20;100.00
5679;BME280;2862;52.560;13.566;2023-07-31T09:03:41;99984.88;;;18.68;98.58
5679;BME280;2862;52.560;13.566;2023-07-31T09:13:46;99981.28;;;18.95;100.00
5679;BME280;2862;52.560;13.566;2023-07-31T09:23:50;99969.59;;;19.43;95.10
5679;BME280;2862;52.560;13.566;2023-07-31T09:33:56;99970.03;;;19.46;94.41
5679;BME280;2862;52.560;13.566;2023-07-31T09:43:59;99970.78;;;18.79;100.00
5679;BME280;2862;52.560;13.566;2023-07-31T09:54:03;99973.38;;;18.38;100.00
5679;BME280;2862;52.560;13.566;2023-07-31T10:04:07;99970.34;;;18.47;100.00
5679;BME280;2862;52.560;13.566;2023-07-31T10:14:13;99956.25;;;18.30;100.00
5679;BME280;2862;52.560;13.566;2023-07-31T10:24:16;99950.38;;;18.83;100.00
5679;BME280;2862;52.560;13.566;2023-07-31T10:34:21;99940.88;;;18.66;100.00
5679;BME280;2862;52.560;13.566;2023-07-31T10:44:24;99945.53;;;18.44;100.00
5679;BME280;2862;52.560;13.566;2023-07-31T10:54:28;99925.75;;;18.78;100.00
5679;BME280;2862;52.560;13.566;2023-07-31T11:04:31;99916.72;;;19.73;98.44
5679;BME280;2862;52.560;13.566;2023-07-31T11:14:36;99895.72;;;20.80;93.06
5679;BME280;2862;52.560;13.566;2023-07-31T11:24:39;99890.78;;;20.50;91.31
5679;BME280;2862;52.560;13.566;2023-07-31T11:34:52;99885.38;;;20.37;88.85
5679;BME280;2862;52.560;13.566;2023-07-31T11:44:55;99874.09;;;20.47;81.22
5679;BME280;2862;52.560;13.566;2023-07-31T11:54:59;99877.66;;;20.27;82.31
5679;BME280;2862;52.560;13.566;2023-07-31T12:05:03;99874.50;;;20.43;81.74
5679;BME280;2862;52.560;13.566;2023-07-31T12:15:15;99873.03;;;20.54;77.53
5679;BME280;2862;52.560;13.566;2023-07-31T12:25:18;99848.78;;;20.53;78.37
5679;BME280;2862;52.560;13.566;2023-07-31T12:35:22;99843.41;;;20.91;76.92
5679;BME280;2862;52.560;13.566;2023-07-31T12:45:25;99839.63;;;20.54;75.73
5679;BME280;2862;52.560;13.566;2023-07-31T12:55:29;99821.56;;;21.11;74.51
5679;BME280;2862;52.560;13.566;2023-07-31T13:05:32;99808.69;;;21.31;74.93
5679;BME280;2862;52.560;13.566;2023-07-31T13:15:37;99801.38;;;21.32;75.87
5679;BME280;2862;52.560;13.566;2023-07-31T13:25:40;99807.84;;;20.41;80.31
5679;BME280;2862;52.560;13.566;2023-07-31T13:35:44;99800.94;;;20.52;77.65
5679;BME280;2862;52.560;13.566;2023-07-31T13:45:47;99799.09;;;20.90;80.25
5679;BME280;2862;52.560;13.566;2023-07-31T13:55:51;99776.47;;;21.35;74.95
5679;BME280;2862;52.560;13.566;2023-07-31T14:05:55;99764.50;;;22.04;73.09
5679;BME280;2862;52.560;13.566;2023-07-31T14:15:59;99770.13;;;22.09;72.28
5679;BME280;2862;52.560;13.566;2023-07-31T14:26:01;99751.13;;;22.03;72.76
5679;BME280;2862;52.560;13.566;2023-07-31T14:36:06;99750.81;;;21.74;72.43
5679;BME280;2862;52.560;13.566;2023-07-31T14:46:09;99735.31;;;21.50;73.78
5679;BME280;2862;52.560;13.566;2023-07-31T14:56:14;99722.84;;;21.85;73.22
5679;BME280;2862;52.560;13.566;2023-07-31T15:06:17;99727.88;;;21.38;72.91
5679;BME280;2862;52.560;13.566;2023-07-31T15:16:21;99718.00;;;21.44;72.83
5679;BME280;2862;52.560;13.566;2023-07-31T15:26:24;99707.50;;;21.23;74.14
5679;BME280;2862;52.560;13.566;2023-07-31T15:36:28;99690.38;;;21.47;73.79
5679;BME280;2862;52.560;13.566;2023-07-31T15:46:31;99690.19;;;21.85;72.00
5679;BME280;2862;52.560;13.566;2023-07-31T15:56:35;99674.78;;;21.36;73.77
5679;BME280;2862;52.560;13.566;2023-07-31T16:06:39;99666.72;;;21.23;74.93
5679;BME280;2862;52.560;13.566;2023-07-31T16:16:43;99660.66;;;21.20;76.14
5679;BME280;2862;52.560;13.566;2023-07-31T16:26:48;99672.72;;;21.06;77.49
5679;BME280;2862;52.560;13.566;2023-07-31T16:36:52;99693.59;;;20.81;79.61
5679;BME280;2862;52.560;13.566;2023-07-31T16:46:56;99660.81;;;20.76;78.79
5679;BME280;2862;52.560;13.566;2023-07-31T16:57:00;99667.25;;;20.81;78.02
5679;BME280;2862;52.560;13.566;2023-07-31T17:07:03;99643.97;;;20.92;75.69
5679;BME280;2862;52.560;13.566;2023-07-31T17:17:07;99638.72;;;20.97;74.17
5679;BME280;2862;52.560;13.566;2023-07-31T17:27:10;99643.31;;;20.97;74.18
5679;BME280;2862;52.560;13.566;2023-07-31T17:37:14;99654.47;;;20.88;74.92
5679;BME280;2862;52.560;13.566;2023-07-31T17:47:17;99674.69;;;20.92;76.65
5679;BME280;2862;52.560;13.566;2023-07-31T17:57:22;99673.41;;;20.32;88.40
5679;BME280;2862;52.560;13.566;2023-07-31T18:07:25;99666.44;;;20.04;92.35
5679;BME280;2862;52.560;13.566;2023-07-31T18:17:30;99659.63;;;19.82;92.50
5679;BME280;2862;52.560;13.566;2023-07-31T18:27:33;99658.00;;;19.68;92.83
5679;BME280;2862;52.560;13.566;2023-07-31T18:37:37;99663.63;;;19.53;94.29
5679;BME280;2862;52.560;13.566;2023-07-31T18:47:40;99642.16;;;19.51;93.14
5679;BME280;2862;52.560;13.566;2023-07-31T18:57:44;99652.38;;;19.49;91.10
5679;BME280;2862;52.560;13.566;2023-07-31T19:07:47;99633.59;;;19.61;87.77
5679;BME280;2862;52.560;13.566;2023-07-31T19:17:52;99632.34;;;19.63;86.52
5679;BME280;2862;52.560;13.566;2023-07-31T19:27:56;99619.41;;;19.52;86.65
5679;BME280;2862;52.560;13.566;2023-07-31T19:38:00;99610.25;;;19.47;87.50
5679;BME280;2862;52.560;13.566;2023-07-31T19:48:03;99607.56;;;19.40;87.49
5679;BME280;2862;52.560;13.566;2023-07-31T19:58:07;99600.06;;;19.35;87.90
5679;BME280;2862;52.560;13.566;2023-07-31T20:08:10;99586.31;;;19.30;88.21
5679;BME280;2862;52.560;13.566;2023-07-31T20:18:14;99578.63;;;19.27;89.15
5679;BME280;2862;52.560;13.566;2023-07-31T20:28:17;99550.47;;;19.15;89.97
5679;BME280;2862;52.560;13.566;2023-07-31T20:38:21;99549.25;;;19.11;90.49
5679;BME280;2862;52.560;13.566;2023-07-31T20:48:24;99530.69;;;19.15;90.42
5679;BME280;2862;52.560;13.566;2023-07-31T20:58:28;99522.19;;;19.04;91.46
5679;BME280;2862;52.560;13.566;2023-07-31T21:08:31;99513.88;;;18.99;92.14
5679;BME280;2862;52.560;13.566;2023-07-31T21:18:36;99492.84;;;18.88;92.53
5679;BME280;2862;52.560;13.566;2023-07-31T21:28:39;99483.69;;;18.76;93.37
5679;BME280;2862;52.560;13.566;2023-07-31T21:38:43;99470.38;;;18.81;93.87
5679;BME280;2862;52.560;13.566;2023-07-31T21:48:46;99456.81;;;18.81;93.65
5679;BME280;2862;52.560;13.566;2023-07-31T21:58:50;99456.16;;;18.86;93.91
5679;BME280;2862;52.560;13.566;2023-07-31T22:08:53;99443.66;;;18.91;94.15
5679;BME280;2862;52.560;13.566;2023-07-31T22:18:58;99429.50;;;18.89;93.98
5679;BME280;2862;52.560;13.566;2023-07-31T22:29:01;99425.28;;;19.00;92.61
5679;BME280;2862;52.560;13.566;2023-07-31T22:39:05;99387.34;;;19.06;92.05
5679;BME280;2862;52.560;13.566;2023-07-31T22:49:08;99371.53;;;18.97;93.12
5679;BME280;2862;52.560;13.566;2023-07-31T22:59:12;99358.25;;;18.89;94.16
5679;BME280;2862;52.560;13.566;2023-07-31T23:09:15;99345.13;;;18.86;93.39
5679;BME280;2862;52.560;13.566;2023-07-31T23:19:20;99328.44;;;18.89;92.37
5679;BME280;2862;52.560;13.566;2023-07-31T23:29:24;99301.75;;;18.92;92.82
5679;BME280;2862;52.560;13.566;2023-07-31T23:39:29;99293.47;;;18.87;92.74
5679;BME280;2862;52.560;13.566;2023-07-31T23:49:31;99286.66;;;18.65;97.38
5679;BME280;2862;52.560;13.566;2023-07-31T23:59:36;99273.41;;;18.43;99.58
